sensor_id;sensor_type;location;lat;lon;timestamp;P1;durP1;ratioP1;P2;durP2;ratioP2
61471;SDS011;47337;54.068;12.114;2023-01-24T00:01:44;10.60;;;5.78;;
61471;SDS011;47337;54.068;12.114;2023-01-24T00:04:09;9.60;;;6.05;;
61471;SDS011;47337;54.068;12.114;2023-01-24T00:06:35;11.98;;;6.93;;
61471;SDS011;47337;54.068;12.114;2023-01-24T00:09:03;11.95;;;7.35;;
61471;SDS011;47337;54.068;12.114;2023-01-24T00:11:33;10.60;;;6.70;;
61471;SDS011;47337;54.068;12.114;2023-01-24T00:13:58;11.48;;;6.75;;
61471;SDS011;47337;54.068;12.114;2023-01-24T00:16:24;13.80;;;7.22;;
61471;SDS011;47337;54.068;12.114;2023-01-24T00:18:49;10.63;;;6.55;;
61471;SDS011;47337;54.068;12.114;2023-01-24T00:21:17;10.10;;;6.20;;
61471;SDS011;47337;54.068;12.114;2023-01-24T00:23:45;9.75;;;6.32;;
61471;SDS011;47337;54.068;12.114;2023-01-24T00:26:12;9.55;;;5.88;;
61471;SDS011;47337;54.068;12.114;2023-01-24T00:28:41;10.50;;;6.18;;
61471;SDS011;47337;54.068;12.114;2023-01-24T00:31:10;10.48;;;6.07;;
61471;SDS011;47337;54.068;12.114;2023-01-24T00:33:36;10.27;;;6.43;;
61471;SDS011;47337;54.068;12.114;2023-01-24T00:36:04;7.85;;;4.95;;
61471;SDS011;47337;54.068;12.114;2023-01-24T00:38:32;9.70;;;6.43;;
61471;SDS011;47337;54.068;12.114;2023-01-24T00:40:57;10.02;;;6.47;;
61471;SDS011;47337;54.068;12.114;2023-01-24T00:43:23;9.40;;;5.57;;
61471;SDS011;47337;54.068;12.114;2023-01-24T00:45:48;9.85;;;6.05;;
61471;SDS011;47337;54.068;12.114;2023-01-24T00:48:14;8.93;;;6.22;;
61471;SDS011;47337;54.068;12.114;2023-01-24T00:50:40;10.40;;;5.97;;
61471;SDS011;47337;54.068;12.114;2023-01-24T00:53:10;12.25;;;7.47;;
61471;SDS011;47337;54.068;12.114;2023-01-24T00:55:45;10.68;;;6.10;;
61471;SDS011;47337;54.068;12.114;2023-01-24T00:58:12;11.15;;;5.95;;
61471;SDS011;47337;54.068;12.114;2023-01-24T01:00:38;13.30;;;7.32;;
61471;SDS011;47337;54.068;12.114;2023-01-24T01:03:07;10.85;;;6.32;;
61471;SDS011;47337;54.068;12.114;2023-01-24T01:05:35;10.02;;;5.90;;
61471;SDS011;47337;54.068;12.114;2023-01-24T01:08:01;10.23;;;6.10;;
61471;SDS011;47337;54.068;12.114;2023-01-24T01:10:29;10.48;;;6.57;;
61471;SDS011;47337;54.068;12.114;2023-01-24T01:12:54;12.95;;;6.63;;
61471;SDS011;47337;54.068;12.114;2023-01-24T01:15:21;11.65;;;6.95;;
61471;SDS011;47337;54.068;12.114;2023-01-24T01:17:46;11.05;;;6.80;;
61471;SDS011;47337;54.068;12.114;2023-01-24T01:20:12;11.52;;;6.80;;
61471;SDS011;47337;54.068;12.114;2023-01-24T01:22:37;12.75;;;6.78;;
61471;SDS011;47337;54.068;12.114;2023-01-24T01:25:02;11.55;;;6.65;;
61471;SDS011;47337;54.068;12.114;2023-01-24T01:27:28;13.82;;;7.53;;
61471;SDS011;47337;54.068;12.114;2023-01-24T01:29:53;12.68;;;6.95;;
61471;SDS011;47337;54.068;12.114;2023-01-24T01:32:19;13.43;;;7.88;;
61471;SDS011;47337;54.068;12.114;2023-01-24T01:34:47;15.00;;;8.13;;
61471;SDS011;47337;54.068;12.114;2023-01-24T01:37:12;12.15;;;7.55;;
61471;SDS011;47337;54.068;12.114;2023-01-24T01:39:38;13.15;;;7.57;;
61471;SDS011;47337;54.068;12.114;2023-01-24T01:42:03;14.38;;;7.47;;
61471;SDS011;47337;54.068;12.114;2023-01-24T01:44:30;14.32;;;8.30;;
61471;SDS011;47337;54.068;12.114;2023-01-24T01:47:11;14.93;;;7.45;;
61471;SDS011;47337;54.068;12.114;2023-01-24T01:49:41;11.50;;;7.25;;
61471;SDS011;47337;54.068;12.114;2023-01-24T01:52:29;16.38;;;7.82;;
61471;SDS011;47337;54.068;12.114;2023-01-24T01:55:01;13.18;;;7.47;;
61471;SDS011;47337;54.068;12.114;2023-01-24T01:57:35;13.98;;;8.10;;
61471;SDS011;47337;54.068;12.114;2023-01-24T02:02:32;14.57;;;8.25;;
61471;SDS011;47337;54.068;12.114;2023-01-24T02:04:59;15.85;;;8.63;;
61471;SDS011;47337;54.068;12.114;2023-01-24T02:07:36;13.70;;;8.23;;
61471;SDS011;47337;54.068;12.114;2023-01-24T02:10:06;12.30;;;7.43;;
61471;SDS011;47337;54.068;12.114;2023-01-24T02:12:33;14.27;;;8.75;;
61471;SDS011;47337;54.068;12.114;2023-01-24T02:15:07;10.95;;;6.95;;
61471;SDS011;47337;54.068;12.114;2023-01-24T02:17:56;13.07;;;7.95;;
61471;SDS011;47337;54.068;12.114;2023-01-24T02:28:27;16.00;;;8.70;;
61471;SDS011;47337;54.068;12.114;2023-01-24T02:30:56;18.98;;;9.43;;
61471;SDS011;47337;54.068;12.114;2023-01-24T02:33:25;16.77;;;8.80;;
61471;SDS011;47337;54.068;12.114;2023-01-24T02:35:50;17.45;;;9.50;;
61471;SDS011;47337;54.068;12.114;2023-01-24T02:38:28;13.93;;;7.38;;
61471;SDS011;47337;54.068;12.114;2023-01-24T02:40:56;15.57;;;8.25;;
61471;SDS011;47337;54.068;12.114;2023-01-24T02:43:34;13.55;;;8.02;;
61471;SDS011;47337;54.068;12.114;2023-01-24T02:46:02;15.57;;;7.90;;
61471;SDS011;47337;54.068;12.114;2023-01-24T02:48:28;13.50;;;7.53;;
61471;SDS011;47337;54.068;12.114;2023-01-24T02:50:53;13.02;;;7.65;;
61471;SDS011;47337;54.068;12.114;2023-01-24T02:53:37;14.48;;;8.15;;
61471;SDS011;47337;54.068;12.114;2023-01-24T02:56:04;13.02;;;7.65;;
61471;SDS011;47337;54.068;12.114;2023-01-24T02:58:50;14.93;;;8.82;;
61471;SDS011;47337;54.068;12.114;2023-01-24T03:01:16;17.65;;;9.30;;
61471;SDS011;47337;54.068;12.114;2023-01-24T03:03:43;20.45;;;9.27;;
61471;SDS011;47337;54.068;12.114;2023-01-24T03:06:14;16.35;;;9.20;;
61471;SDS011;47337;54.068;12.114;2023-01-24T03:08:41;17.23;;;8.77;;
61471;SDS011;47337;54.068;12.114;2023-01-24T03:11:11;16.08;;;9.45;;
61471;SDS011;47337;54.068;12.114;2023-01-24T03:13:37;17.27;;;8.43;;
61471;SDS011;47337;54.068;12.114;2023-01-24T03:16:21;15.50;;;8.95;;
61471;SDS011;47337;54.068;12.114;2023-01-24T03:19:05;15.65;;;8.43;;
61471;SDS011;47337;54.068;12.114;2023-01-24T03:21:49;16.05;;;8.57;;
61471;SDS011;47337;54.068;12.114;2023-01-24T03:24:33;17.35;;;9.00;;
61471;SDS011;47337;54.068;12.114;2023-01-24T03:27:18;16.60;;;9.57;;
61471;SDS011;47337;54.068;12.114;2023-01-24T03:30:02;17.55;;;9.30;;
61471;SDS011;47337;54.068;12.114;2023-01-24T03:32:48;17.70;;;9.60;;
61471;SDS011;47337;54.068;12.114;2023-01-24T03:35:32;18.70;;;9.63;;
61471;SDS011;47337;54.068;12.114;2023-01-24T03:37:58;21.08;;;10.50;;
61471;SDS011;47337;54.068;12.114;2023-01-24T03:40:42;18.35;;;10.65;;
61471;SDS011;47337;54.068;12.114;2023-01-24T03:43:08;20.80;;;10.88;;
61471;SDS011;47337;54.068;12.114;2023-01-24T03:45:37;18.42;;;10.43;;
61471;SDS011;47337;54.068;12.114;2023-01-24T03:48:08;19.20;;;9.93;;
61471;SDS011;47337;54.068;12.114;2023-01-24T03:50:38;18.45;;;9.88;;
61471;SDS011;47337;54.068;12.114;2023-01-24T03:53:25;18.63;;;9.82;;
61471;SDS011;47337;54.068;12.114;2023-01-24T03:55:58;19.02;;;9.38;;
61471;SDS011;47337;54.068;12.114;2023-01-24T03:58:28;16.00;;;9.13;;
61471;SDS011;47337;54.068;12.114;2023-01-24T04:00:58;16.88;;;8.77;;
61471;SDS011;47337;54.068;12.114;2023-01-24T04:03:23;16.38;;;8.82;;
61471;SDS011;47337;54.068;12.114;2023-01-24T04:05:51;16.42;;;9.88;;
61471;SDS011;47337;54.068;12.114;2023-01-24T04:08:17;15.57;;;8.55;;
61471;SDS011;47337;54.068;12.114;2023-01-24T04:10:43;16.20;;;8.95;;
61471;SDS011;47337;54.068;12.114;2023-01-24T04:13:09;12.27;;;7.53;;
61471;SDS011;47337;54.068;12.114;2023-01-24T04:15:35;15.25;;;9.18;;
61471;SDS011;47337;54.068;12.114;2023-01-24T04:18:02;15.80;;;8.65;;
61471;SDS011;47337;54.068;12.114;2023-01-24T04:20:29;15.60;;;9.00;;
61471;SDS011;47337;54.068;12.114;2023-01-24T04:22:59;15.52;;;8.63;;
61471;SDS011;47337;54.068;12.114;2023-01-24T04:25:25;17.73;;;8.80;;
61471;SDS011;47337;54.068;12.114;2023-01-24T04:27:50;16.50;;;8.63;;
61471;SDS011;47337;54.068;12.114;2023-01-24T04:30:18;20.02;;;9.15;;
61471;SDS011;47337;54.068;12.114;2023-01-24T04:32:44;16.80;;;9.57;;
61471;SDS011;47337;54.068;12.114;2023-01-24T04:35:14;16.38;;;9.25;;
61471;SDS011;47337;54.068;12.114;2023-01-24T04:37:44;15.30;;;9.20;;
61471;SDS011;47337;54.068;12.114;2023-01-24T04:40:10;15.15;;;8.48;;
61471;SDS011;47337;54.068;12.114;2023-01-24T04:42:41;16.80;;;8.90;;
61471;SDS011;47337;54.068;12.114;2023-01-24T04:45:07;15.38;;;9.05;;
61471;SDS011;47337;54.068;12.114;2023-01-24T04:47:33;17.00;;;8.93;;
61471;SDS011;47337;54.068;12.114;2023-01-24T04:49:59;22.50;;;10.30;;
61471;SDS011;47337;54.068;12.114;2023-01-24T04:52:24;18.02;;;9.23;;
61471;SDS011;47337;54.068;12.114;2023-01-24T04:54:52;16.52;;;9.38;;
61471;SDS011;47337;54.068;12.114;2023-01-24T04:57:17;17.45;;;8.63;;
61471;SDS011;47337;54.068;12.114;2023-01-24T04:59:43;19.15;;;9.68;;
61471;SDS011;47337;54.068;12.114;2023-01-24T05:02:09;16.55;;;8.70;;
61471;SDS011;47337;54.068;12.114;2023-01-24T05:04:34;17.85;;;9.70;;
61471;SDS011;47337;54.068;12.114;2023-01-24T05:07:00;17.13;;;9.00;;
61471;SDS011;47337;54.068;12.114;2023-01-24T05:09:26;17.17;;;9.27;;
61471;SDS011;47337;54.068;12.114;2023-01-24T05:11:53;16.77;;;9.02;;
61471;SDS011;47337;54.068;12.114;2023-01-24T05:14:19;14.77;;;8.80;;
61471;SDS011;47337;54.068;12.114;2023-01-24T05:16:44;17.23;;;8.75;;
61471;SDS011;47337;54.068;12.114;2023-01-24T05:19:10;18.92;;;10.70;;
61471;SDS011;47337;54.068;12.114;2023-01-24T05:21:35;17.13;;;9.27;;
61471;SDS011;47337;54.068;12.114;2023-01-24T05:24:03;20.02;;;10.57;;
61471;SDS011;47337;54.068;12.114;2023-01-24T05:26:29;21.98;;;10.35;;
61471;SDS011;47337;54.068;12.114;2023-01-24T05:28:57;20.85;;;11.15;;
61471;SDS011;47337;54.068;12.114;2023-01-24T05:31:25;20.08;;;10.25;;
61471;SDS011;47337;54.068;12.114;2023-01-24T05:33:50;20.17;;;10.18;;
61471;SDS011;47337;54.068;12.114;2023-01-24T05:36:20;19.08;;;10.25;;
61471;SDS011;47337;54.068;12.114;2023-01-24T05:38:47;19.92;;;10.18;;
61471;SDS011;47337;54.068;12.114;2023-01-24T05:41:16;17.70;;;10.43;;
61471;SDS011;47337;54.068;12.114;2023-01-24T05:43:43;19.27;;;10.20;;
61471;SDS011;47337;54.068;12.114;2023-01-24T05:46:11;20.70;;;10.63;;
61471;SDS011;47337;54.068;12.114;2023-01-24T05:48:41;20.90;;;10.68;;
61471;SDS011;47337;54.068;12.114;2023-01-24T05:51:08;22.52;;;11.25;;
61471;SDS011;47337;54.068;12.114;2023-01-24T05:53:35;19.92;;;10.10;;
61471;SDS011;47337;54.068;12.114;2023-01-24T05:56:03;20.73;;;11.13;;
61471;SDS011;47337;54.068;12.114;2023-01-24T05:58:33;20.02;;;10.68;;
61471;SDS011;47337;54.068;12.114;2023-01-24T06:01:00;20.52;;;10.98;;
61471;SDS011;47337;54.068;12.114;2023-01-24T06:03:29;19.40;;;9.98;;
61471;SDS011;47337;54.068;12.114;2023-01-24T06:05:54;23.00;;;11.73;;
61471;SDS011;47337;54.068;12.114;2023-01-24T06:08:20;18.73;;;9.87;;
61471;SDS011;47337;54.068;12.114;2023-01-24T06:10:47;19.17;;;10.32;;
61471;SDS011;47337;54.068;12.114;2023-01-24T06:13:12;19.33;;;9.32;;
61471;SDS011;47337;54.068;12.114;2023-01-24T06:15:40;19.35;;;10.25;;
61471;SDS011;47337;54.068;12.114;2023-01-24T06:18:06;17.83;;;9.27;;
61471;SDS011;47337;54.068;12.114;2023-01-24T06:20:37;20.70;;;9.98;;
61471;SDS011;47337;54.068;12.114;2023-01-24T06:23:04;20.35;;;9.88;;
61471;SDS011;47337;54.068;12.114;2023-01-24T06:25:36;18.63;;;10.73;;
61471;SDS011;47337;54.068;12.114;2023-01-24T06:28:02;21.25;;;9.93;;
61471;SDS011;47337;54.068;12.114;2023-01-24T06:30:27;16.85;;;9.95;;
61471;SDS011;47337;54.068;12.114;2023-01-24T06:38:59;18.80;;;10.02;;
61471;SDS011;47337;54.068;12.114;2023-01-24T06:41:25;18.75;;;9.82;;
61471;SDS011;47337;54.068;12.114;2023-01-24T06:43:53;17.90;;;9.55;;
61471;SDS011;47337;54.068;12.114;2023-01-24T06:46:21;20.17;;;10.32;;
61471;SDS011;47337;54.068;12.114;2023-01-24T06:48:46;20.55;;;10.43;;
61471;SDS011;47337;54.068;12.114;2023-01-24T06:51:12;20.35;;;10.10;;
61471;SDS011;47337;54.068;12.114;2023-01-24T06:53:40;20.98;;;10.95;;
61471;SDS011;47337;54.068;12.114;2023-01-24T06:56:06;20.70;;;10.35;;
61471;SDS011;47337;54.068;12.114;2023-01-24T06:58:33;17.95;;;10.43;;
61471;SDS011;47337;54.068;12.114;2023-01-24T07:01:01;17.88;;;10.02;;
61471;SDS011;47337;54.068;12.114;2023-01-24T07:03:30;18.85;;;10.63;;
61471;SDS011;47337;54.068;12.114;2023-01-24T07:05:56;19.60;;;10.93;;
61471;SDS011;47337;54.068;12.114;2023-01-24T07:08:21;20.95;;;9.73;;
61471;SDS011;47337;54.068;12.114;2023-01-24T07:10:49;18.88;;;9.73;;
61471;SDS011;47337;54.068;12.114;2023-01-24T07:13:14;18.23;;;10.05;;
61471;SDS011;47337;54.068;12.114;2023-01-24T07:15:40;17.80;;;9.32;;
61471;SDS011;47337;54.068;12.114;2023-01-24T07:18:06;18.52;;;9.57;;
61471;SDS011;47337;54.068;12.114;2023-01-24T07:20:33;20.80;;;9.65;;
61471;SDS011;47337;54.068;12.114;2023-01-24T07:23:01;19.05;;;10.10;;
61471;SDS011;47337;54.068;12.114;2023-01-24T07:25:29;18.60;;;9.30;;
61471;SDS011;47337;54.068;12.114;2023-01-24T07:27:56;20.80;;;10.43;;
61471;SDS011;47337;54.068;12.114;2023-01-24T07:30:26;19.92;;;10.27;;
61471;SDS011;47337;54.068;12.114;2023-01-24T07:32:53;19.60;;;9.73;;
61471;SDS011;47337;54.068;12.114;2023-01-24T07:35:18;19.08;;;9.70;;
61471;SDS011;47337;54.068;12.114;2023-01-24T07:37:43;17.67;;;9.35;;
61471;SDS011;47337;54.068;12.114;2023-01-24T07:40:09;23.23;;;10.88;;
61471;SDS011;47337;54.068;12.114;2023-01-24T07:42:35;17.67;;;9.38;;
61471;SDS011;47337;54.068;12.114;2023-01-24T07:45:00;19.75;;;9.88;;
61471;SDS011;47337;54.068;12.114;2023-01-24T07:47:28;16.70;;;9.77;;
61471;SDS011;47337;54.068;12.114;2023-01-24T07:49:55;18.73;;;9.93;;
61471;SDS011;47337;54.068;12.114;2023-01-24T07:52:21;19.33;;;9.80;;
61471;SDS011;47337;54.068;12.114;2023-01-24T07:54:47;21.08;;;10.10;;
61471;SDS011;47337;54.068;12.114;2023-01-24T07:57:12;17.25;;;9.70;;
61471;SDS011;47337;54.068;12.114;2023-01-24T07:59:42;20.27;;;10.63;;
61471;SDS011;47337;54.068;12.114;2023-01-24T08:02:11;20.85;;;10.15;;
61471;SDS011;47337;54.068;12.114;2023-01-24T08:04:37;23.27;;;10.85;;
61471;SDS011;47337;54.068;12.114;2023-01-24T08:07:03;19.10;;;9.65;;
61471;SDS011;47337;54.068;12.114;2023-01-24T08:09:45;20.55;;;11.20;;
61471;SDS011;47337;54.068;12.114;2023-01-24T08:12:13;16.90;;;9.55;;
61471;SDS011;47337;54.068;12.114;2023-01-24T08:14:41;20.15;;;10.35;;
61471;SDS011;47337;54.068;12.114;2023-01-24T08:17:07;20.88;;;10.50;;
61471;SDS011;47337;54.068;12.114;2023-01-24T08:19:33;18.15;;;9.80;;
61471;SDS011;47337;54.068;12.114;2023-01-24T08:22:03;18.55;;;9.73;;
61471;SDS011;47337;54.068;12.114;2023-01-24T08:24:31;19.55;;;10.38;;
61471;SDS011;47337;54.068;12.114;2023-01-24T08:27:01;17.48;;;9.25;;
61471;SDS011;47337;54.068;12.114;2023-01-24T08:29:27;18.73;;;10.75;;
61471;SDS011;47337;54.068;12.114;2023-01-24T08:31:53;21.33;;;11.60;;
61471;SDS011;47337;54.068;12.114;2023-01-24T08:34:19;22.25;;;10.25;;
61471;SDS011;47337;54.068;12.114;2023-01-24T08:36:44;19.15;;;9.23;;
61471;SDS011;47337;54.068;12.114;2023-01-24T08:39:10;18.88;;;9.63;;
61471;SDS011;47337;54.068;12.114;2023-01-24T08:41:35;19.42;;;10.40;;
61471;SDS011;47337;54.068;12.114;2023-01-24T08:44:07;19.52;;;9.52;;
61471;SDS011;47337;54.068;12.114;2023-01-24T08:46:33;18.90;;;9.75;;
61471;SDS011;47337;54.068;12.114;2023-01-24T08:49:02;19.85;;;10.68;;
61471;SDS011;47337;54.068;12.114;2023-01-24T08:51:27;20.83;;;9.55;;
61471;SDS011;47337;54.068;12.114;2023-01-24T08:53:53;18.17;;;10.48;;
61471;SDS011;47337;54.068;12.114;2023-01-24T08:56:18;19.33;;;10.00;;
61471;SDS011;47337;54.068;12.114;2023-01-24T08:58:46;19.75;;;10.38;;
61471;SDS011;47337;54.068;12.114;2023-01-24T09:01:11;20.95;;;10.52;;
61471;SDS011;47337;54.068;12.114;2023-01-24T09:03:37;18.13;;;10.27;;
61471;SDS011;47337;54.068;12.114;2023-01-24T09:06:05;18.70;;;10.18;;
61471;SDS011;47337;54.068;12.114;2023-01-24T09:08:31;17.95;;;9.50;;
61471;SDS011;47337;54.068;12.114;2023-01-24T09:11:00;17.77;;;9.70;;
61471;SDS011;47337;54.068;12.114;2023-01-24T09:13:28;20.52;;;10.10;;
61471;SDS011;47337;54.068;12.114;2023-01-24T09:15:53;18.38;;;9.35;;
61471;SDS011;47337;54.068;12.114;2023-01-24T09:18:21;20.40;;;10.38;;
61471;SDS011;47337;54.068;12.114;2023-01-24T09:20:47;18.58;;;9.98;;
61471;SDS011;47337;54.068;12.114;2023-01-24T09:23:12;18.27;;;9.93;;
61471;SDS011;47337;54.068;12.114;2023-01-24T09:25:48;20.42;;;10.35;;
61471;SDS011;47337;54.068;12.114;2023-01-24T09:28:14;17.88;;;9.55;;
61471;SDS011;47337;54.068;12.114;2023-01-24T09:30:40;20.65;;;10.43;;
61471;SDS011;47337;54.068;12.114;2023-01-24T09:33:05;20.25;;;10.60;;
61471;SDS011;47337;54.068;12.114;2023-01-24T09:35:30;18.30;;;9.88;;
61471;SDS011;47337;54.068;12.114;2023-01-24T09:37:56;19.02;;;10.30;;
61471;SDS011;47337;54.068;12.114;2023-01-24T09:40:35;19.75;;;10.20;;
61471;SDS011;47337;54.068;12.114;2023-01-24T09:43:22;20.92;;;11.20;;
61471;SDS011;47337;54.068;12.114;2023-01-24T09:46:00;19.90;;;10.02;;
61471;SDS011;47337;54.068;12.114;2023-01-24T09:48:32;19.25;;;10.15;;
61471;SDS011;47337;54.068;12.114;2023-01-24T09:51:09;20.40;;;9.75;;
61471;SDS011;47337;54.068;12.114;2023-01-24T09:53:43;16.70;;;9.50;;
61471;SDS011;47337;54.068;12.114;2023-01-24T09:56:24;18.92;;;10.43;;
61471;SDS011;47337;54.068;12.114;2023-01-24T09:59:02;16.48;;;9.60;;
61471;SDS011;47337;54.068;12.114;2023-01-24T10:01:37;20.90;;;9.95;;
61471;SDS011;47337;54.068;12.114;2023-01-24T10:15:08;20.13;;;10.40;;
61471;SDS011;47337;54.068;12.114;2023-01-24T10:23:46;21.05;;;9.90;;
61471;SDS011;47337;54.068;12.114;2023-01-24T10:28:48;18.88;;;9.95;;
61471;SDS011;47337;54.068;12.114;2023-01-24T10:33:50;19.10;;;8.98;;
61471;SDS011;47337;54.068;12.114;2023-01-24T10:36:42;18.42;;;9.23;;
61471;SDS011;47337;54.068;12.114;2023-01-24T10:39:13;18.70;;;9.57;;
61471;SDS011;47337;54.068;12.114;2023-01-24T10:41:38;17.02;;;9.23;;
61471;SDS011;47337;54.068;12.114;2023-01-24T10:50:06;18.75;;;10.30;;
61471;SDS011;47337;54.068;12.114;2023-01-24T10:52:33;19.83;;;10.57;;
61471;SDS011;47337;54.068;12.114;2023-01-24T10:55:00;15.07;;;8.43;;
61471;SDS011;47337;54.068;12.114;2023-01-24T11:02:30;19.10;;;10.48;;
61471;SDS011;47337;54.068;12.114;2023-01-24T11:05:04;17.50;;;8.77;;
61471;SDS011;47337;54.068;12.114;2023-01-24T11:07:35;18.48;;;10.07;;
61471;SDS011;47337;54.068;12.114;2023-01-24T11:10:09;16.75;;;9.40;;
61471;SDS011;47337;54.068;12.114;2023-01-24T11:12:57;18.73;;;9.88;;
61471;SDS011;47337;54.068;12.114;2023-01-24T11:15:31;16.25;;;9.00;;
61471;SDS011;47337;54.068;12.114;2023-01-24T11:17:59;16.67;;;8.63;;
61471;SDS011;47337;54.068;12.114;2023-01-24T11:20:44;19.08;;;9.85;;
61471;SDS011;47337;54.068;12.114;2023-01-24T11:23:12;18.48;;;9.57;;
61471;SDS011;47337;54.068;12.114;2023-01-24T11:25:50;19.02;;;9.88;;
61471;SDS011;47337;54.068;12.114;2023-01-24T11:28:23;18.83;;;9.52;;
61471;SDS011;47337;54.068;12.114;2023-01-24T11:30:52;17.30;;;8.60;;
61471;SDS011;47337;54.068;12.114;2023-01-24T11:35:54;16.60;;;8.98;;
61471;SDS011;47337;54.068;12.114;2023-01-24T11:38:28;18.08;;;9.52;;
61471;SDS011;47337;54.068;12.114;2023-01-24T11:43:35;18.05;;;9.68;;
61471;SDS011;47337;54.068;12.114;2023-01-24T11:48:52;17.65;;;9.63;;
61471;SDS011;47337;54.068;12.114;2023-01-24T11:51:45;19.65;;;9.65;;
61471;SDS011;47337;54.068;12.114;2023-01-24T11:57:06;17.63;;;9.35;;
61471;SDS011;47337;54.068;12.114;2023-01-24T12:00:34;18.75;;;9.68;;
61471;SDS011;47337;54.068;12.114;2023-01-24T12:03:07;18.50;;;9.23;;
61471;SDS011;47337;54.068;12.114;2023-01-24T12:13:59;15.82;;;8.77;;
61471;SDS011;47337;54.068;12.114;2023-01-24T12:17:23;17.20;;;9.60;;
61471;SDS011;47337;54.068;12.114;2023-01-24T12:20:16;18.70;;;9.52;;
61471;SDS011;47337;54.068;12.114;2023-01-24T12:22:46;14.98;;;9.35;;
61471;SDS011;47337;54.068;12.114;2023-01-24T12:25:22;18.38;;;8.95;;
61471;SDS011;47337;54.068;12.114;2023-01-24T12:27:50;17.35;;;9.48;;
61471;SDS011;47337;54.068;12.114;2023-01-24T12:30:29;14.20;;;8.98;;
61471;SDS011;47337;54.068;12.114;2023-01-24T12:35:47;20.08;;;9.30;;
61471;SDS011;47337;54.068;12.114;2023-01-24T12:38:20;17.40;;;9.10;;
61471;SDS011;47337;54.068;12.114;2023-01-24T12:58:23;14.27;;;7.72;;
61471;SDS011;47337;54.068;12.114;2023-01-24T13:12:50;17.55;;;8.60;;
61471;SDS011;47337;54.068;12.114;2023-01-24T13:34:39;18.60;;;8.93;;
61471;SDS011;47337;54.068;12.114;2023-01-24T13:37:20;17.52;;;8.95;;
61471;SDS011;47337;54.068;12.114;2023-01-24T13:39:58;17.30;;;9.10;;
61471;SDS011;47337;54.068;12.114;2023-01-24T13:42:33;16.00;;;8.52;;
61471;SDS011;47337;54.068;12.114;2023-01-24T13:47:48;15.77;;;9.02;;
61471;SDS011;47337;54.068;12.114;2023-01-24T13:50:15;17.95;;;9.75;;
61471;SDS011;47337;54.068;12.114;2023-01-24T13:52:43;17.63;;;9.05;;
61471;SDS011;47337;54.068;12.114;2023-01-24T13:58:30;19.08;;;9.30;;
61471;SDS011;47337;54.068;12.114;2023-01-24T14:03:17;16.50;;;8.60;;
61471;SDS011;47337;54.068;12.114;2023-01-24T14:08:31;16.60;;;9.23;;
61471;SDS011;47337;54.068;12.114;2023-01-24T14:18:59;17.92;;;9.82;;
61471;SDS011;47337;54.068;12.114;2023-01-24T14:26:55;17.25;;;9.52;;
61471;SDS011;47337;54.068;12.114;2023-01-24T14:29:39;16.27;;;9.02;;
61471;SDS011;47337;54.068;12.114;2023-01-24T14:32:28;18.65;;;9.60;;
61471;SDS011;47337;54.068;12.114;2023-01-24T14:37:43;18.73;;;9.38;;
61471;SDS011;47337;54.068;12.114;2023-01-24T14:40:18;19.40;;;9.85;;
61471;SDS011;47337;54.068;12.114;2023-01-24T14:42:58;19.33;;;10.02;;
61471;SDS011;47337;54.068;12.114;2023-01-24T14:45:28;17.67;;;9.43;;
61471;SDS011;47337;54.068;12.114;2023-01-24T14:47:57;17.45;;;8.48;;
61471;SDS011;47337;54.068;12.114;2023-01-24T14:50:25;17.00;;;8.50;;
61471;SDS011;47337;54.068;12.114;2023-01-24T14:52:52;16.13;;;8.50;;
61471;SDS011;47337;54.068;12.114;2023-01-24T14:57:51;22.00;;;9.77;;
61471;SDS011;47337;54.068;12.114;2023-01-24T15:00:17;19.42;;;9.82;;
61471;SDS011;47337;54.068;12.114;2023-01-24T15:05:26;18.15;;;9.35;;
61471;SDS011;47337;54.068;12.114;2023-01-24T15:07:57;18.10;;;9.30;;
61471;SDS011;47337;54.068;12.114;2023-01-24T15:10:34;18.60;;;9.00;;
61471;SDS011;47337;54.068;12.114;2023-01-24T15:13:03;17.45;;;9.52;;
61471;SDS011;47337;54.068;12.114;2023-01-24T15:15:33;20.98;;;9.55;;
61471;SDS011;47337;54.068;12.114;2023-01-24T15:18:00;19.17;;;9.30;;
61471;SDS011;47337;54.068;12.114;2023-01-24T15:20:46;20.73;;;10.10;;
61471;SDS011;47337;54.068;12.114;2023-01-24T15:23:13;17.98;;;8.98;;
61471;SDS011;47337;54.068;12.114;2023-01-24T15:25:44;19.73;;;10.00;;
61471;SDS011;47337;54.068;12.114;2023-01-24T15:28:18;21.40;;;9.63;;
61471;SDS011;47337;54.068;12.114;2023-01-24T15:30:54;19.23;;;9.43;;
61471;SDS011;47337;54.068;12.114;2023-01-24T15:33:21;19.73;;;9.95;;
61471;SDS011;47337;54.068;12.114;2023-01-24T15:35:50;18.75;;;8.48;;
61471;SDS011;47337;54.068;12.114;2023-01-24T15:38:24;16.77;;;9.23;;
61471;SDS011;47337;54.068;12.114;2023-01-24T15:40:55;17.10;;;8.93;;
61471;SDS011;47337;54.068;12.114;2023-01-24T15:46:22;18.30;;;9.20;;
61471;SDS011;47337;54.068;12.114;2023-01-24T15:51:45;18.00;;;9.32;;
61471;SDS011;47337;54.068;12.114;2023-01-24T15:54:28;16.98;;;8.95;;
61471;SDS011;47337;54.068;12.114;2023-01-24T15:56:58;19.90;;;10.15;;
61471;SDS011;47337;54.068;12.114;2023-01-24T15:59:25;23.20;;;9.65;;
61471;SDS011;47337;54.068;12.114;2023-01-24T16:01:52;17.08;;;8.75;;
61471;SDS011;47337;54.068;12.114;2023-01-24T16:04:20;17.85;;;9.25;;
61471;SDS011;47337;54.068;12.114;2023-01-24T16:06:47;16.70;;;7.40;;
61471;SDS011;47337;54.068;12.114;2023-01-24T16:09:15;20.58;;;8.93;;
61471;SDS011;47337;54.068;12.114;2023-01-24T16:11:42;18.88;;;9.00;;
61471;SDS011;47337;54.068;12.114;2023-01-24T16:14:20;17.67;;;9.32;;
61471;SDS011;47337;54.068;12.114;2023-01-24T16:16:47;19.88;;;9.93;;
61471;SDS011;47337;54.068;12.114;2023-01-24T16:19:18;21.10;;;9.77;;
61471;SDS011;47337;54.068;12.114;2023-01-24T16:21:46;19.30;;;9.40;;
61471;SDS011;47337;54.068;12.114;2023-01-24T16:24:15;16.02;;;9.15;;
61471;SDS011;47337;54.068;12.114;2023-01-24T16:26:45;16.75;;;9.30;;
61471;SDS011;47337;54.068;12.114;2023-01-24T16:29:17;17.50;;;8.82;;
61471;SDS011;47337;54.068;12.114;2023-01-24T16:31:53;20.58;;;9.90;;
61471;SDS011;47337;54.068;12.114;2023-01-24T16:34:18;19.30;;;9.35;;
61471;SDS011;47337;54.068;12.114;2023-01-24T16:36:46;17.08;;;8.73;;
61471;SDS011;47337;54.068;12.114;2023-01-24T16:39:16;17.33;;;9.00;;
61471;SDS011;47337;54.068;12.114;2023-01-24T16:41:44;19.10;;;8.80;;
61471;SDS011;47337;54.068;12.114;2023-01-24T16:44:14;22.08;;;9.57;;
61471;SDS011;47337;54.068;12.114;2023-01-24T16:46:40;22.05;;;9.95;;
61471;SDS011;47337;54.068;12.114;2023-01-24T16:49:14;21.48;;;8.80;;
61471;SDS011;47337;54.068;12.114;2023-01-24T16:51:41;17.83;;;8.30;;
61471;SDS011;47337;54.068;12.114;2023-01-24T16:54:08;20.98;;;10.10;;
61471;SDS011;47337;54.068;12.114;2023-01-24T16:56:33;19.83;;;9.98;;
61471;SDS011;47337;54.068;12.114;2023-01-24T16:58:59;19.73;;;10.13;;
61471;SDS011;47337;54.068;12.114;2023-01-24T17:01:24;19.25;;;10.05;;
61471;SDS011;47337;54.068;12.114;2023-01-24T17:03:50;20.80;;;11.18;;
61471;SDS011;47337;54.068;12.114;2023-01-24T17:06:17;20.20;;;9.95;;
61471;SDS011;47337;54.068;12.114;2023-01-24T17:08:43;21.58;;;10.00;;
61471;SDS011;47337;54.068;12.114;2023-01-24T17:11:09;21.50;;;10.35;;
61471;SDS011;47337;54.068;12.114;2023-01-24T17:13:38;19.67;;;9.70;;